createdAt,value
2018-04-06T00:01:48.399Z,101462.34
2018-04-06T00:04:15.890Z,101460.63
2018-04-06T00:06:43.346Z,101460.81
2018-04-06T00:09:10.736Z,101468.80
2018-04-06T00:11:38.123Z,101466.59
2018-04-06T00:14:05.627Z,101469.31
2018-04-06T00:16:33.019Z,101476.50
2018-04-06T00:19:00.418Z,101473.29
2018-04-06T00:21:27.814Z,101476.86
2018-04-06T00:23:55.202Z,101480.50
2018-04-06T00:26:22.598Z,101486.20
2018-04-06T00:28:49.986Z,101487.29
2018-04-06T00:31:18.126Z,101485.72
2018-04-06T00:33:45.515Z,101491.31
2018-04-06T00:36:12.912Z,101484.53
2018-04-06T00:38:40.299Z,101487.00
2018-04-06T00:41:07.729Z,101487.31
2018-04-06T00:43:35.187Z,101486.39
2018-04-06T00:46:02.582Z,101495.59
2018-04-06T00:50:56.706Z,101499.02
2018-04-06T00:53:36.195Z,101496.30
2018-04-06T00:56:03.632Z,101493.19
2018-04-06T00:58:31.964Z,101499.02
2018-04-06T01:00:59.346Z,101495.78
2018-04-06T01:03:26.734Z,101491.98
2018-04-06T01:05:54.131Z,101491.51
2018-04-06T01:08:21.631Z,101497.86
2018-04-06T01:10:49.027Z,101500.08
2018-04-06T01:13:16.426Z,101498.89
2018-04-06T01:15:43.813Z,101499.91
2018-04-06T01:18:11.257Z,101510.38
2018-04-06T01:20:38.643Z,101511.33
2018-04-06T01:23:06.070Z,101506.74
2018-04-06T01:25:33.459Z,101506.69
2018-04-06T01:28:00.855Z,101517.16
2018-04-06T01:30:28.238Z,101517.49
2018-04-06T01:32:55.631Z,101518.59
2018-04-06T01:35:23.019Z,101516.42
2018-04-06T01:37:50.416Z,101524.23
2018-04-06T01:40:17.794Z,101522.19
2018-04-06T01:42:45.197Z,101518.84
2018-04-06T01:45:12.670Z,101517.32
2018-04-06T01:47:40.143Z,101519.17
2018-04-06T01:50:07.587Z,101521.36
2018-04-06T01:52:35.053Z,101521.63
2018-04-06T01:55:02.434Z,101524.09
2018-04-06T01:57:29.834Z,101523.87
2018-04-06T01:59:57.267Z,101525.25
2018-04-06T02:02:24.614Z,101527.30
2018-04-06T02:04:51.999Z,101530.69
2018-04-06T02:07:19.395Z,101537.47
2018-04-06T02:09:46.807Z,101544.97
2018-04-06T02:12:14.198Z,101545.18
2018-04-06T02:14:41.595Z,101550.80
2018-04-06T02:17:09.615Z,101548.14
2018-04-06T02:19:37.062Z,101552.28
2018-04-06T02:22:04.466Z,101555.26
2018-04-06T02:24:31.905Z,101551.30
2018-04-06T02:26:59.275Z,101553.47
2018-04-06T02:29:26.671Z,101553.11
2018-04-06T02:31:54.160Z,101560.46
2018-04-06T02:34:21.559Z,101554.23
2018-04-06T02:36:48.942Z,101553.69
2018-04-06T02:39:17.183Z,101541.53
2018-04-06T02:41:44.598Z,101546.60
2018-04-06T02:44:11.982Z,101544.52
2018-04-06T02:46:39.376Z,101549.27
2018-04-06T02:49:06.790Z,101552.99
2018-04-06T02:51:34.161Z,101555.25
2018-04-06T02:54:01.568Z,101554.28
2018-04-06T02:56:28.943Z,101555.09
2018-04-06T02:58:56.338Z,101551.64
2018-04-06T03:01:23.724Z,101550.41
2018-04-06T03:03:51.124Z,101552.12
2018-04-06T03:06:18.514Z,101547.08
2018-04-06T03:08:45.914Z,101542.80
2018-04-06T03:11:13.306Z,101541.98
2018-04-06T03:13:40.703Z,101550.30
2018-04-06T03:16:08.091Z,101553.88
2018-04-06T03:18:35.486Z,101546.09
2018-04-06T03:21:02.978Z,101546.06
2018-04-06T03:23:30.370Z,101552.94
2018-04-06T03:25:57.759Z,101548.61
2018-04-06T03:28:25.155Z,101548.66
2018-04-06T03:30:52.611Z,101551.28
2018-04-06T03:33:19.991Z,101549.30
2018-04-06T03:35:47.391Z,101549.14
2018-04-06T03:38:14.775Z,101546.98
2018-04-06T03:40:42.158Z,101552.53
2018-04-06T03:43:10.162Z,101550.83
2018-04-06T03:45:37.560Z,101547.72
2018-04-06T03:48:04.956Z,101550.80
2018-04-06T03:50:32.351Z,101547.28
2018-04-06T03:52:59.738Z,101546.91
2018-04-06T03:55:27.134Z,101550.80
2018-04-06T03:57:54.614Z,101555.55
2018-04-06T04:00:22.014Z,101559.45
2018-04-06T04:02:49.427Z,101565.89
2018-04-06T04:05:17.723Z,101563.36
2018-04-06T04:07:45.106Z,101559.44
2018-04-06T04:10:12.494Z,101559.45
2018-04-06T04:12:39.898Z,101559.04
2018-04-06T04:15:07.280Z,101556.92
2018-04-06T04:17:34.666Z,101553.88
2018-04-06T04:20:02.072Z,101557.42
2018-04-06T04:22:29.459Z,101558.42
2018-04-06T04:24:56.867Z,101560.64
2018-04-06T04:27:24.243Z,101558.94
2018-04-06T04:29:51.710Z,101563.80
2018-04-06T04:32:19.166Z,101560.75
2018-04-06T04:34:46.574Z,101566.06
2018-04-06T04:37:13.961Z,101568.29
2018-04-06T04:39:41.342Z,101574.38
2018-04-06T04:42:08.744Z,101581.33
2018-04-06T04:44:36.130Z,101582.18
2018-04-06T04:47:03.590Z,101583.94
2018-04-06T04:49:31.047Z,101581.28
2018-04-06T04:51:58.502Z,101591.23
2018-04-06T04:54:25.958Z,101600.36
2018-04-06T04:56:53.415Z,101603.00
2018-04-06T04:59:20.822Z,101603.00
2018-04-06T05:01:48.331Z,101605.53
2018-04-06T05:04:15.710Z,101598.96
2018-04-06T05:06:43.114Z,101606.33
2018-04-06T05:09:10.587Z,101603.64
2018-04-06T05:11:37.978Z,101602.23
2018-04-06T05:14:05.377Z,101602.49
2018-04-06T05:16:32.766Z,101606.13
2018-04-06T05:19:00.152Z,101606.05
2018-04-06T05:21:27.568Z,101612.48
2018-04-06T05:23:55.028Z,101617.98
2018-04-06T05:26:22.426Z,101617.13
2018-04-06T05:28:49.826Z,101608.09
2018-04-06T05:31:17.219Z,101617.13
2018-04-06T05:33:44.638Z,101617.89
2018-04-06T05:36:12.039Z,101619.87
2018-04-06T05:38:39.534Z,101619.58
2018-04-06T05:41:06.850Z,101618.67
2018-04-06T05:43:34.250Z,101621.64
2018-04-06T05:46:01.639Z,101617.03
2018-04-06T05:48:29.036Z,101621.38
2018-04-06T05:50:56.422Z,101622.06
2018-04-06T05:53:23.878Z,101629.39
2018-04-06T05:55:51.334Z,101634.52
2018-04-06T05:58:18.775Z,101629.86
2018-04-06T06:00:46.155Z,101629.00
2018-04-06T06:03:13.551Z,101627.79
2018-04-06T06:05:40.960Z,101633.51
2018-04-06T06:08:08.355Z,101636.98
2018-04-06T06:10:36.743Z,101638.24
2018-04-06T06:13:04.138Z,101651.22
2018-04-06T06:15:31.599Z,101655.86
2018-04-06T06:17:58.997Z,101654.13
2018-04-06T06:20:26.387Z,101650.69
2018-04-06T06:22:53.783Z,101653.11
2018-04-06T06:25:21.174Z,101658.09
2018-04-06T06:27:48.570Z,101657.70
2018-04-06T06:30:15.968Z,101666.71
2018-04-06T06:32:43.385Z,101660.22
2018-04-06T06:35:10.841Z,101662.55
2018-04-06T06:37:38.231Z,101665.94
2018-04-06T06:40:05.656Z,101662.52
2018-04-06T06:42:33.102Z,101662.19
2018-04-06T06:45:00.567Z,101656.13
2018-04-06T06:47:28.018Z,101655.06
2018-04-06T06:49:55.543Z,101655.08
2018-04-06T06:52:23.037Z,101655.53
2018-04-06T06:54:50.437Z,101656.34
2018-04-06T06:57:17.827Z,101667.52
2018-04-06T06:59:45.303Z,101670.52
2018-04-06T07:02:13.114Z,101667.31
2018-04-06T07:04:40.569Z,101660.70
2018-04-06T07:07:08.027Z,101662.84
2018-04-06T07:09:35.486Z,101665.98
2018-04-06T07:12:02.874Z,101669.69
2018-04-06T07:14:30.296Z,101670.67
2018-04-06T07:16:57.682Z,101666.66
2018-04-06T07:19:25.078Z,101660.98
2018-04-06T07:21:52.467Z,101664.92
2018-04-06T07:24:19.863Z,101666.12
2018-04-06T07:26:48.186Z,101664.70
2018-04-06T07:29:15.646Z,101656.88
2018-04-06T07:31:43.043Z,101664.77
2018-04-06T07:34:10.463Z,101658.64
2018-04-06T07:36:37.854Z,101653.92
2018-04-06T07:39:06.152Z,101649.50
2018-04-06T07:41:33.547Z,101648.59
2018-04-06T07:44:00.955Z,101649.48
2018-04-06T07:46:28.464Z,101652.56
2018-04-06T07:48:55.918Z,101650.77
2018-04-06T07:51:23.302Z,101653.73
2018-04-06T07:53:50.699Z,101653.42
2018-04-06T07:56:18.086Z,101657.19
2018-04-06T07:58:45.700Z,101659.39
2018-04-06T08:01:13.194Z,101655.72
2018-04-06T08:03:40.591Z,101660.56
2018-04-06T08:06:07.982Z,101657.03
2018-04-06T08:08:35.374Z,101665.86
2018-04-06T08:11:02.770Z,101671.42
2018-04-06T08:13:30.220Z,101663.59
2018-04-06T08:15:57.582Z,101661.20
2018-04-06T08:18:24.978Z,101655.28
2018-04-06T08:20:52.364Z,101663.56
2018-04-06T08:23:19.763Z,101656.95
2018-04-06T08:25:47.150Z,101659.45
2018-04-06T08:28:15.477Z,101656.48
2018-04-06T08:30:42.941Z,101650.48
2018-04-06T08:33:10.399Z,101648.22
2018-04-06T08:35:37.869Z,101643.92
2018-04-06T08:38:05.255Z,101651.68
2018-04-06T08:40:32.662Z,101645.14
2018-04-06T08:43:00.084Z,101645.78
2018-04-06T08:45:27.575Z,101651.91
2018-04-06T08:47:55.139Z,101648.40
2018-04-06T08:50:22.518Z,101650.97
2018-04-06T08:52:49.906Z,101642.89
2018-04-06T08:55:17.415Z,101643.73
2018-04-06T08:57:44.836Z,101638.09
2018-04-06T09:00:12.238Z,101638.36
2018-04-06T09:02:39.645Z,101641.92
2018-04-06T09:05:07.046Z,101644.02
2018-04-06T09:07:34.542Z,101646.80
2018-04-06T09:10:01.947Z,101642.52
2018-04-06T09:12:29.355Z,101647.09
2018-04-06T09:14:56.779Z,101645.98
2018-04-06T09:17:24.158Z,101644.32
2018-04-06T09:19:51.566Z,101646.11
2018-04-06T09:22:18.981Z,101651.55
2018-04-06T09:24:46.373Z,101653.53
2018-04-06T09:27:13.767Z,101654.31
2018-04-06T09:29:41.167Z,101657.56
2018-04-06T09:32:08.553Z,101655.89
2018-04-06T09:34:35.954Z,101664.16
2018-04-06T09:37:03.424Z,101662.54
2018-04-06T09:39:30.826Z,101662.38
2018-04-06T09:41:58.214Z,101662.59
2018-04-06T09:44:25.607Z,101659.73
2018-04-06T09:46:53.039Z,101656.43
2018-04-06T09:49:20.434Z,101654.34
2018-04-06T09:51:47.823Z,101657.18
2018-04-06T09:54:15.221Z,101651.73
2018-04-06T09:56:42.623Z,101639.92
2018-04-06T09:59:10.075Z,101643.25
2018-04-06T10:01:37.555Z,101639.87
2018-04-06T10:04:04.999Z,101646.63
2018-04-06T10:06:32.382Z,101643.59
2018-04-06T10:08:59.787Z,101647.12
2018-04-06T10:11:27.199Z,101630.69
2018-04-06T10:13:54.621Z,101636.59
2018-04-06T10:16:22.070Z,101633.48
2018-04-06T10:18:49.479Z,101627.84
2018-04-06T10:21:16.870Z,101629.57
2018-04-06T10:23:44.259Z,101622.88
2018-04-06T10:26:11.655Z,101624.77
2018-04-06T10:28:39.121Z,101624.56
2018-04-06T10:31:06.574Z,101623.20
2018-04-06T10:33:34.066Z,101623.88
2018-04-06T10:36:01.465Z,101623.69
2018-04-06T10:38:28.845Z,101619.34
2018-04-06T10:40:56.298Z,101623.25
2018-04-06T10:43:23.700Z,101631.08
2018-04-06T10:45:51.867Z,101624.86
2018-04-06T10:48:19.326Z,101624.27
2018-04-06T10:50:46.822Z,101614.02
2018-04-06T10:53:14.206Z,101614.05
2018-04-06T10:55:41.600Z,101612.79
2018-04-06T10:58:09.066Z,101615.25
2018-04-06T11:00:36.480Z,101605.38
2018-04-06T11:03:03.875Z,101600.74
2018-04-06T11:05:31.266Z,101601.02
2018-04-06T11:07:58.678Z,101592.25
2018-04-06T11:10:26.139Z,101587.77
2018-04-06T11:12:53.518Z,101586.18
2018-04-06T11:15:20.920Z,101581.91
2018-04-06T11:17:48.302Z,101588.89
2018-04-06T11:20:15.766Z,101589.72
2018-04-06T11:22:43.235Z,101580.70
2018-04-06T11:25:10.625Z,101578.99
2018-04-06T11:27:38.043Z,101580.27
2018-04-06T11:30:05.519Z,101578.29
2018-04-06T11:32:32.902Z,101567.85
2018-04-06T11:35:00.290Z,101558.02
2018-04-06T11:37:27.683Z,101559.69
2018-04-06T11:39:55.122Z,101554.34
2018-04-06T11:42:22.503Z,101550.15
2018-04-06T11:44:49.907Z,101545.06
2018-04-06T11:47:17.335Z,101531.32
2018-04-06T11:49:45.649Z,101533.12
2018-04-06T11:52:13.034Z,101531.80
2018-04-06T11:54:40.462Z,101522.78
2018-04-06T11:57:07.838Z,101519.74
2018-04-06T11:59:35.279Z,101515.88
2018-04-06T12:02:02.671Z,101512.20
2018-04-06T12:04:30.055Z,101514.55
2018-04-06T12:06:57.446Z,101504.97
2018-04-06T12:09:24.905Z,101508.02
2018-04-06T12:11:52.358Z,101510.00
2018-04-06T12:14:19.747Z,101508.75
2018-04-06T12:16:47.148Z,101513.84
2018-04-06T12:19:14.627Z,101502.98
2018-04-06T12:21:42.015Z,101511.63
2018-04-06T12:24:09.430Z,101513.03
2018-04-06T12:26:36.821Z,101516.80
2018-04-06T12:29:04.206Z,101513.00
2018-04-06T12:31:31.611Z,101506.26
2018-04-06T12:33:59.010Z,101495.08
2018-04-06T12:36:26.394Z,101488.91
2018-04-06T12:38:54.419Z,101487.97
2018-04-06T12:41:21.817Z,101479.48
2018-04-06T12:43:49.197Z,101484.77
2018-04-06T12:46:16.595Z,101470.42
2018-04-06T12:48:43.983Z,101464.09
2018-04-06T12:51:11.375Z,101462.70
2018-04-06T12:53:38.811Z,101461.30
2018-04-06T12:56:06.200Z,101471.88
2018-04-06T12:58:33.590Z,101469.52
2018-04-06T13:01:01.000Z,101474.09
2018-04-06T13:03:28.390Z,101465.73
2018-04-06T13:05:55.782Z,101468.27
2018-04-06T13:08:23.171Z,101467.29
2018-04-06T13:10:50.659Z,101461.28
2018-04-06T13:13:18.323Z,101454.05
2018-04-06T13:15:45.774Z,101445.30
2018-04-06T13:18:13.250Z,101456.38
2018-04-06T13:20:40.630Z,101452.33
2018-04-06T13:23:08.038Z,101446.38
2018-04-06T13:25:35.438Z,101442.30
2018-04-06T13:28:02.823Z,101449.34
2018-04-06T13:30:30.215Z,101440.41
2018-04-06T13:32:57.667Z,101443.61
2018-04-06T13:35:25.107Z,101440.55
2018-04-06T13:37:52.495Z,101431.70
2018-04-06T13:40:19.908Z,101440.39
2018-04-06T13:42:47.314Z,101435.14
2018-04-06T13:45:14.702Z,101429.58
2018-04-06T13:47:42.094Z,101428.28
2018-04-06T13:50:09.565Z,101428.02
2018-04-06T13:52:36.963Z,101412.33
2018-04-06T13:55:04.383Z,101416.66
2018-04-06T13:57:31.847Z,101413.30
2018-04-06T13:59:59.229Z,101412.98
2018-04-06T14:02:26.654Z,101412.97
2018-04-06T14:04:54.110Z,101414.25
2018-04-06T14:07:21.564Z,101413.61
2018-04-06T14:09:48.943Z,101411.43
2018-04-06T14:12:16.379Z,101411.83
2018-04-06T14:14:43.834Z,101409.66
2018-04-06T14:17:11.230Z,101407.36
2018-04-06T14:19:38.622Z,101411.64
2018-04-06T14:22:06.007Z,101412.69
2018-04-06T14:24:33.396Z,101404.08
2018-04-06T14:27:00.806Z,101403.88
2018-04-06T14:29:28.198Z,101396.08
2018-04-06T14:31:55.595Z,101392.77
2018-04-06T14:34:22.978Z,101388.83
2018-04-06T14:36:50.366Z,101390.43
2018-04-06T14:39:17.804Z,101388.77
2018-04-06T14:41:45.222Z,101380.03
2018-04-06T14:44:12.611Z,101388.09
2018-04-06T14:46:40.063Z,101378.73
2018-04-06T14:49:07.458Z,101385.96
2018-04-06T14:51:34.852Z,101369.98
2018-04-06T14:54:02.302Z,101360.02
2018-04-06T14:56:29.766Z,101353.77
2018-04-06T14:58:57.158Z,101356.38
2018-04-06T15:01:24.584Z,101367.25
2018-04-06T15:03:51.983Z,101351.86
2018-04-06T15:06:19.378Z,101346.41
2018-04-06T15:08:46.758Z,101335.44
2018-04-06T15:11:14.156Z,101338.34
2018-04-06T15:13:41.540Z,101332.81
2018-04-06T15:16:09.011Z,101332.13
2018-04-06T15:18:36.479Z,101335.61
2018-04-06T15:21:03.863Z,101327.61
2018-04-06T15:23:31.282Z,101318.96
2018-04-06T15:25:58.678Z,101315.98
2018-04-06T15:28:26.067Z,101306.66
2018-04-06T15:30:53.553Z,101304.35
2018-04-06T15:33:20.932Z,101297.98
2018-04-06T15:35:48.341Z,101294.26
2018-04-06T15:38:15.715Z,101287.31
2018-04-06T15:40:43.110Z,101284.25
2018-04-06T15:43:10.531Z,101290.98
2018-04-06T15:45:37.939Z,101284.06
2018-04-06T15:48:05.344Z,101281.01
2018-04-06T15:50:32.731Z,101272.52
2018-04-06T15:53:00.122Z,101261.87
2018-04-06T15:55:27.616Z,101257.23
2018-04-06T15:57:55.006Z,101251.45
2018-04-06T16:00:22.399Z,101246.63
2018-04-06T16:02:49.796Z,101242.34
2018-04-06T16:05:17.200Z,101247.58
2018-04-06T16:07:44.595Z,101241.84
2018-04-06T16:10:12.092Z,101243.20
2018-04-06T16:12:39.478Z,101239.33
2018-04-06T16:15:06.863Z,101242.25
2018-04-06T16:17:34.253Z,101236.06
2018-04-06T16:20:01.634Z,101232.29
2018-04-06T16:22:29.037Z,101236.02
2018-04-06T16:24:56.427Z,101232.34
2018-04-06T16:27:23.825Z,101227.59
2018-04-06T16:29:51.210Z,101233.02
2018-04-06T16:32:18.603Z,101226.28
2018-04-06T16:34:45.988Z,101209.67
2018-04-06T16:37:13.374Z,101217.41
2018-04-06T16:39:40.770Z,101219.52
2018-04-06T16:42:08.196Z,101220.63
2018-04-06T16:44:35.591Z,101215.81
2018-04-06T16:47:02.983Z,101226.51
2018-04-06T16:49:30.402Z,101223.87
2018-04-06T16:51:57.807Z,101226.09
2018-04-06T16:54:25.279Z,101235.33
2018-04-06T16:56:52.671Z,101228.75
2018-04-06T16:59:20.063Z,101230.08
2018-04-06T17:01:47.451Z,101220.00
2018-04-06T17:04:14.910Z,101229.53
2018-04-06T17:06:42.331Z,101224.64
2018-04-06T17:09:09.719Z,101216.98
2018-04-06T17:11:37.139Z,101213.30
2018-04-06T17:14:04.519Z,101222.25
2018-04-06T17:16:31.910Z,101217.09
2018-04-06T17:18:59.333Z,101216.37
2018-04-06T17:21:26.719Z,101218.19
2018-04-06T17:23:54.113Z,101211.12
2018-04-06T17:26:21.505Z,101207.41
2018-04-06T17:28:48.897Z,101209.91
2018-04-06T17:31:16.509Z,101201.30
2018-04-06T17:33:43.913Z,101206.79
2018-04-06T17:36:11.306Z,101207.72
2018-04-06T17:38:38.860Z,101214.18
2018-04-06T17:41:06.353Z,101209.73
2018-04-06T17:43:33.771Z,101212.58
2018-04-06T17:46:01.190Z,101215.89
2018-04-06T17:48:28.606Z,101212.47
2018-04-06T17:50:55.974Z,101222.30
2018-04-06T17:53:23.398Z,101221.86
2018-04-06T17:55:50.867Z,101233.11
2018-04-06T17:58:18.315Z,101229.98
2018-04-06T18:00:45.699Z,101228.59
2018-04-06T18:03:13.094Z,101236.09
2018-04-06T18:05:40.582Z,101235.81
2018-04-06T18:08:08.043Z,101232.24
2018-04-06T18:10:35.436Z,101233.74
2018-04-06T18:13:02.848Z,101228.30
2018-04-06T18:15:30.312Z,101231.88
2018-04-06T18:17:57.833Z,101231.81
2018-04-06T18:20:25.237Z,101227.66
2018-04-06T18:22:52.626Z,101230.29
2018-04-06T18:25:20.039Z,101229.22
2018-04-06T18:27:47.435Z,101232.06
2018-04-06T18:30:14.852Z,101236.56
2018-04-06T18:32:42.243Z,101232.64
2018-04-06T18:35:09.663Z,101236.93
2018-04-06T18:37:37.055Z,101237.05
2018-04-06T18:40:04.458Z,101240.55
2018-04-06T18:42:31.858Z,101241.22
2018-04-06T18:44:59.247Z,101243.28
2018-04-06T18:47:26.670Z,101247.37
2018-04-06T18:49:54.090Z,101253.63
2018-04-06T18:52:21.668Z,101253.26
2018-04-06T18:54:49.102Z,101250.78
2018-04-06T18:57:16.515Z,101244.61
2018-04-06T18:59:43.924Z,101241.17
2018-04-06T19:02:11.380Z,101245.49
2018-04-06T19:04:38.843Z,101239.44
2018-04-06T19:07:06.287Z,101241.66
2018-04-06T19:09:33.675Z,101241.09
2018-04-06T19:12:01.065Z,101232.91
2018-04-06T19:14:28.486Z,101229.17
2018-04-06T19:16:55.887Z,101232.38
2018-04-06T19:19:23.281Z,101234.21
2018-04-06T19:21:50.678Z,101231.95
2018-04-06T19:24:18.065Z,101232.16
2018-04-06T19:26:45.675Z,101226.98
2018-04-06T19:29:13.098Z,101230.05
2018-04-06T19:31:40.506Z,101224.53
2018-04-06T19:34:07.924Z,101225.23
2018-04-06T19:36:35.383Z,101216.44
2018-04-06T19:39:02.763Z,101219.97
2018-04-06T19:41:30.147Z,101215.81
2018-04-06T19:43:57.543Z,101219.69
2018-04-06T19:46:24.935Z,101225.49
2018-04-06T19:48:52.311Z,101221.71
2018-04-06T19:51:19.707Z,101218.69
2018-04-06T19:53:47.154Z,101220.23
2018-04-06T19:56:14.544Z,101208.59
2018-04-06T19:58:41.970Z,101213.19
2018-04-06T20:01:09.419Z,101203.22
2018-04-06T20:03:36.810Z,101200.61
2018-04-06T20:06:04.218Z,101199.43
2018-04-06T20:08:31.695Z,101192.70
2018-04-06T20:10:59.075Z,101196.29
2018-04-06T20:13:26.494Z,101188.69
2018-04-06T20:15:53.950Z,101193.88
2018-04-06T20:18:21.349Z,101194.78
2018-04-06T20:20:48.755Z,101189.08
2018-04-06T20:23:16.219Z,101187.86
2018-04-06T20:25:43.604Z,101184.34
2018-04-06T20:28:10.994Z,101186.23
2018-04-06T20:30:38.485Z,101184.70
2018-04-06T20:33:05.878Z,101178.26
2018-04-06T20:35:33.291Z,101182.65
2018-04-06T20:38:00.683Z,101178.11
2018-04-06T20:40:28.073Z,101177.26
2018-04-06T20:42:55.558Z,101174.27
2018-04-06T20:45:23.037Z,101171.41
2018-04-06T20:47:50.417Z,101165.78
2018-04-06T20:50:17.831Z,101162.87
2018-04-06T20:52:45.219Z,101160.28
2018-04-06T20:55:12.610Z,101145.57
2018-04-06T20:57:40.007Z,101161.34
2018-04-06T21:00:07.455Z,101153.64
2018-04-06T21:02:34.861Z,101149.16
2018-04-06T21:05:02.244Z,101144.58
2018-04-06T21:07:29.715Z,101130.30
2018-04-06T21:09:57.174Z,101125.88
2018-04-06T21:12:24.566Z,101120.53
2018-04-06T21:14:52.731Z,101118.17
2018-04-06T21:17:20.124Z,101116.86
2018-04-06T21:19:48.433Z,101107.90
2018-04-06T21:22:15.831Z,101108.94
2018-04-06T21:24:43.246Z,101105.89
2018-04-06T21:27:10.643Z,101107.37
2018-04-06T21:29:38.026Z,101105.09
2018-04-06T21:32:05.418Z,101094.52
2018-04-06T21:34:32.805Z,101100.45
2018-04-06T21:37:00.226Z,101100.47
2018-04-06T21:39:27.606Z,101096.34
2018-04-06T21:41:54.999Z,101104.03
2018-04-06T21:44:22.392Z,101096.70
2018-04-06T21:46:49.843Z,101092.97
2018-04-06T21:49:17.231Z,101099.55
2018-04-06T21:51:44.619Z,101098.70
2018-04-06T21:54:12.114Z,101096.39
2018-04-06T21:56:39.503Z,101089.86
2018-04-06T21:59:06.890Z,101088.23
2018-04-06T22:01:34.379Z,101075.78
2018-04-06T22:04:01.835Z,101079.05
2018-04-06T22:06:29.219Z,101084.26
2018-04-06T22:08:56.647Z,101086.91
2018-04-06T22:11:24.094Z,101082.16
2018-04-06T22:13:51.490Z,101083.74
2018-04-06T22:16:18.875Z,101074.72
2018-04-06T22:18:46.363Z,101075.32
2018-04-06T22:21:13.831Z,101067.42
2018-04-06T22:23:41.232Z,101070.00
2018-04-06T22:26:08.607Z,101066.40
2018-04-06T22:28:36.005Z,101064.09
2018-04-06T22:31:03.446Z,101058.20
2018-04-06T22:33:30.902Z,101059.05
2018-04-06T22:35:58.277Z,101065.72
2018-04-06T22:38:25.679Z,101062.57
2018-04-06T22:40:53.051Z,101063.87
2018-04-06T22:43:20.443Z,101057.77
2018-04-06T22:45:47.879Z,101057.64
2018-04-06T22:48:15.275Z,101048.96
2018-04-06T22:50:42.691Z,101038.06
2018-04-06T22:53:10.148Z,101030.80
2018-04-06T22:55:37.526Z,101033.01
2018-04-06T22:58:04.935Z,101024.41
2018-04-06T23:00:32.322Z,101018.41
2018-04-06T23:02:59.762Z,101015.45
2018-04-06T23:05:27.141Z,101015.66
2018-04-06T23:07:54.531Z,101017.97
2018-04-06T23:10:21.918Z,101011.03
2018-04-06T23:12:49.382Z,101017.16
2018-04-06T23:15:16.776Z,101015.27
2018-04-06T23:17:44.169Z,101012.22
2018-04-06T23:20:11.551Z,101005.95
2018-04-06T23:22:38.938Z,101002.05
2018-04-06T23:25:07.182Z,100995.95
2018-04-06T23:27:34.567Z,100989.37
2018-04-06T23:30:01.955Z,100980.99
2018-04-06T23:32:29.335Z,100978.06
2018-04-06T23:34:56.725Z,100974.95
2018-04-06T23:37:24.109Z,100974.80
2018-04-06T23:39:51.510Z,100968.91
2018-04-06T23:42:18.894Z,100968.80
2018-04-06T23:44:46.289Z,100973.06
2018-04-06T23:47:13.799Z,100966.14
2018-04-06T23:49:41.186Z,100970.98
2018-04-06T23:52:08.587Z,100973.45
2018-04-06T23:54:35.981Z,100974.30
2018-04-06T23:57:03.363Z,100962.98
2018-04-06T23:59:30.756Z,100962.83
